createdAt,value
2022-09-18T00:00:27.251Z,0
2022-09-18T00:01:27.964Z,0
2022-09-18T00:02:28.096Z,0
2022-09-18T00:03:28.025Z,0
2022-09-18T00:04:27.702Z,0
2022-09-18T00:05:27.834Z,0
2022-09-18T00:06:27.686Z,0
2022-09-18T00:07:27.406Z,0
2022-09-18T00:08:27.129Z,0
2022-09-18T00:09:27.673Z,0
2022-09-18T00:10:27.613Z,0
2022-09-18T00:11:27.859Z,0
2022-09-18T00:12:27.580Z,0
2022-09-18T00:13:27.059Z,0
2022-09-18T00:14:27.925Z,0
2022-09-18T00:15:27.795Z,0
2022-09-18T00:16:27.582Z,0
2022-09-18T00:17:27.261Z,0
2022-09-18T00:18:26.990Z,0
2022-09-18T00:19:27.220Z,0
2022-09-18T00:20:27.216Z,0
2022-09-18T00:21:27.837Z,0
2022-09-18T00:22:27.688Z,0
2022-09-18T00:23:27.672Z,0
2022-09-18T00:24:27.419Z,0
2022-09-18T00:25:27.144Z,0
2022-09-18T00:26:27.647Z,0
2022-09-18T00:27:27.612Z,0
2022-09-18T00:28:27.094Z,0
2022-09-18T00:29:27.333Z,0
2022-09-18T00:30:27.667Z,0
2022-09-18T00:31:27.533Z,0
2022-09-18T00:32:27.304Z,0
2022-09-18T00:33:27.274Z,0
2022-09-18T00:34:27.264Z,0
2022-09-18T00:35:27.242Z,0
2022-09-18T00:36:27.485Z,0
2022-09-18T00:37:27.082Z,0
2022-09-18T00:38:27.205Z,0
2022-09-18T00:39:27.186Z,0
2022-09-18T00:40:27.518Z,0
2022-09-18T00:41:26.927Z,0
2022-09-18T00:42:27.137Z,0
2022-09-18T00:43:26.608Z,0
2022-09-18T00:44:27.368Z,0
2022-09-18T00:45:26.837Z,0
2022-09-18T00:46:27.737Z,0
2022-09-18T00:47:26.808Z,0
2022-09-18T00:48:27.049Z,0
2022-09-18T00:49:26.775Z,0
2022-09-18T00:50:27.031Z,0
2022-09-18T00:51:27.003Z,0
2022-09-18T00:52:27.006Z,0
2022-09-18T00:53:27.098Z,0
2022-09-18T00:54:26.993Z,0
2022-09-18T00:55:26.943Z,0
2022-09-18T00:56:26.692Z,0
2022-09-18T00:57:27.096Z,0
2022-09-18T00:58:26.911Z,0
2022-09-18T00:59:26.408Z,0
2022-09-18T01:00:27.153Z,0
2022-09-18T01:01:26.658Z,0
2022-09-18T01:02:27.884Z,0
2022-09-18T01:03:26.846Z,0
2022-09-18T01:04:26.827Z,0
2022-09-18T01:05:26.541Z,0
2022-09-18T01:06:26.777Z,0
2022-09-18T01:07:26.767Z,0
2022-09-18T01:08:26.760Z,0
2022-09-18T01:09:35.431Z,0
2022-09-18T01:10:26.733Z,0
2022-09-18T01:11:26.195Z,0
2022-09-18T01:12:26.696Z,0
2022-09-18T01:13:26.429Z,0
2022-09-18T01:14:26.408Z,0
2022-09-18T01:15:26.641Z,0
2022-09-18T01:16:26.933Z,0
2022-09-18T01:17:26.102Z,0
2022-09-18T01:18:27.266Z,0
2022-09-18T01:19:26.088Z,0
2022-09-18T01:20:26.816Z,0
2022-09-18T01:21:26.046Z,0
2022-09-18T01:22:26.034Z,0
2022-09-18T01:23:26.801Z,0
2022-09-18T01:24:26.251Z,0
2022-09-18T01:25:26.909Z,0
2022-09-18T01:26:26.742Z,0
2022-09-18T01:27:26.468Z,0
2022-09-18T01:28:26.435Z,0
2022-09-18T01:29:26.426Z,0
2022-09-18T01:30:26.154Z,0
2022-09-18T01:31:26.767Z,0
2022-09-18T01:32:26.133Z,0
2022-09-18T01:33:26.391Z,0
2022-09-18T01:34:58.424Z,0
2022-09-18T01:35:47.718Z,0
2022-09-18T01:36:26.575Z,0
2022-09-18T01:37:26.057Z,0
2022-09-18T01:38:26.548Z,0
2022-09-18T01:39:26.287Z,0
2022-09-18T01:40:26.926Z,0
2022-09-18T01:41:26.384Z,0
2022-09-18T01:42:26.240Z,0
2022-09-18T01:43:25.710Z,0
2022-09-18T01:44:26.202Z,0
2022-09-18T01:45:25.939Z,0
2022-09-18T01:46:26.900Z,0
2022-09-18T01:47:26.155Z,0
2022-09-18T01:48:26.172Z,0
2022-09-18T01:49:26.123Z,0
2022-09-18T01:50:26.365Z,0
2022-09-18T01:51:26.221Z,0
2022-09-18T01:52:26.335Z,0
2022-09-18T01:53:26.327Z,0
2022-09-18T01:54:26.059Z,0
2022-09-18T01:55:25.789Z,0
2022-09-18T01:56:26.276Z,0
2022-09-18T01:57:25.874Z,0
2022-09-18T01:58:26.023Z,0
2022-09-18T01:59:25.734Z,0
2022-09-18T02:00:25.704Z,0
2022-09-18T02:01:26.495Z,0
2022-09-18T02:02:26.275Z,0
2022-09-18T02:03:25.922Z,0
2022-09-18T02:04:25.646Z,0
2022-09-18T02:05:25.626Z,0
2022-09-18T02:06:26.126Z,0
2022-09-18T02:07:26.238Z,0
2022-09-18T02:08:25.595Z,0
2022-09-18T02:09:25.565Z,0
2022-09-18T02:10:25.818Z,0
2022-09-18T02:11:25.809Z,0
2022-09-18T02:12:25.536Z,0
2022-09-18T02:13:25.636Z,0
2022-09-18T02:14:25.749Z,0
2022-09-18T02:15:25.482Z,0
2022-09-18T02:16:25.871Z,0
2022-09-18T02:17:25.445Z,0
2022-09-18T02:18:25.947Z,0
2022-09-18T02:19:25.427Z,0
2022-09-18T02:20:25.407Z,0
2022-09-18T02:21:25.650Z,0
2022-09-18T02:22:26.135Z,0
2022-09-18T02:23:25.774Z,0
2022-09-18T02:24:25.606Z,0
2022-09-18T02:25:25.840Z,0
2022-09-18T02:26:25.315Z,0
2022-09-18T02:27:25.303Z,0
2022-09-18T02:28:25.035Z,0
2022-09-18T02:29:25.640Z,0
2022-09-18T02:30:25.512Z,0
2022-09-18T02:31:25.498Z,0
2022-09-18T02:32:25.479Z,0
2022-09-18T02:33:25.474Z,0
2022-09-18T02:34:25.713Z,0
2022-09-18T02:35:25.700Z,0
2022-09-18T02:36:25.675Z,0
2022-09-18T02:37:25.152Z,0
2022-09-18T02:38:25.897Z,0
2022-09-18T02:39:25.510Z,0
2022-09-18T02:40:25.689Z,0
2022-09-18T02:41:25.601Z,0
2022-09-18T02:42:25.595Z,0
2022-09-18T02:43:25.579Z,0
2022-09-18T02:44:25.063Z,0
2022-09-18T02:45:25.399Z,0
2022-09-18T02:46:25.547Z,0
2022-09-18T02:47:24.743Z,0
2022-09-18T02:48:25.504Z,0
2022-09-18T02:49:25.221Z,0
2022-09-18T02:50:24.953Z,0
2022-09-18T02:51:25.199Z,0
2022-09-18T02:52:25.190Z,0
2022-09-18T02:53:24.917Z,0
2022-09-18T02:54:25.211Z,0
2022-09-18T02:55:25.265Z,0
2022-09-18T02:56:24.876Z,0
2022-09-18T02:57:24.595Z,0
2022-09-18T02:58:24.843Z,0
2022-09-18T02:59:25.098Z,0
2022-09-18T03:00:25.327Z,0
2022-09-18T03:01:25.638Z,0
2022-09-18T03:02:25.716Z,0
2022-09-18T03:03:25.043Z,0
2022-09-18T03:04:25.017Z,0
2022-09-18T03:05:25.014Z,0
2022-09-18T03:06:25.248Z,0
2022-09-18T03:07:25.213Z,0
2022-09-18T03:08:24.700Z,0
2022-09-18T03:09:24.948Z,0
2022-09-18T03:10:25.409Z,0
2022-09-18T03:11:24.770Z,0
2022-09-18T03:12:24.628Z,0
2022-09-18T03:13:25.137Z,0
2022-09-18T03:14:24.859Z,0
2022-09-18T03:15:24.841Z,0
2022-09-18T03:16:25.534Z,0
2022-09-18T03:17:24.944Z,0
2022-09-18T03:18:24.295Z,0
2022-09-18T03:19:24.790Z,0
2022-09-18T03:20:25.038Z,0
2022-09-18T03:21:24.503Z,0
2022-09-18T03:22:24.998Z,0
2022-09-18T03:23:24.733Z,0
2022-09-18T03:24:24.464Z,0
2022-09-18T03:25:24.699Z,0
2022-09-18T03:26:24.988Z,0
2022-09-18T03:27:25.055Z,0
2022-09-18T03:28:24.656Z,0
2022-09-18T03:29:24.639Z,0
2022-09-18T03:30:24.879Z,0
2022-09-18T03:31:24.766Z,0
2022-09-18T03:32:24.857Z,0
2022-09-18T03:49:35.203Z,0
2022-09-18T03:50:34.430Z,0
2022-09-18T03:51:34.682Z,0
2022-09-18T03:52:34.401Z,0
2022-09-18T03:53:34.668Z,0
2022-09-18T03:54:34.367Z,0
2022-09-18T03:55:33.858Z,0
2022-09-18T03:56:34.602Z,0
2022-09-18T03:57:34.600Z,0
2022-09-18T03:58:34.558Z,0
2022-09-18T03:59:34.690Z,0
2022-09-18T04:00:34.266Z,0
2022-09-18T04:01:34.590Z,0
2022-09-18T04:02:34.449Z,0
2022-09-18T04:03:34.041Z,0
2022-09-18T04:04:34.212Z,0
2022-09-18T04:05:34.950Z,0
2022-09-18T04:06:33.925Z,0
2022-09-18T04:07:33.907Z,0
2022-09-18T04:08:34.409Z,0
2022-09-18T04:09:34.142Z,0
2022-09-18T04:10:33.863Z,0
2022-09-18T04:11:33.844Z,0
2022-09-18T04:12:34.118Z,0
2022-09-18T04:13:34.368Z,0
2022-09-18T04:14:37.198Z,0
2022-09-18T04:15:34.047Z,0
2022-09-18T04:16:34.655Z,0
2022-09-18T04:17:34.258Z,0
2022-09-18T04:18:33.993Z,0
2022-09-18T04:19:33.980Z,0
2022-09-18T04:20:33.961Z,0
2022-09-18T04:21:34.733Z,0
2022-09-18T04:22:33.678Z,0
2022-09-18T04:23:33.677Z,0
2022-09-18T04:24:33.637Z,4
2022-09-18T04:25:33.625Z,4
2022-09-18T04:26:33.875Z,0
2022-09-18T04:27:33.345Z,4
2022-09-18T04:28:33.583Z,4
2022-09-18T04:29:33.829Z,4
2022-09-18T04:30:34.074Z,8
2022-09-18T04:31:34.067Z,8
2022-09-18T04:32:34.023Z,12
2022-09-18T04:33:33.761Z,12
2022-09-18T04:34:33.746Z,12
2022-09-18T04:35:33.736Z,16
2022-09-18T04:36:33.461Z,20
2022-09-18T04:37:34.459Z,28
2022-09-18T04:38:33.686Z,28
2022-09-18T04:39:33.423Z,32
2022-09-18T04:40:33.808Z,32
2022-09-18T04:41:33.907Z,32
2022-09-18T04:42:33.880Z,32
2022-09-18T04:43:33.610Z,28
2022-09-18T04:44:33.346Z,36
2022-09-18T04:45:33.326Z,44
2022-09-18T04:46:33.669Z,56
2022-09-18T04:47:33.594Z,52
2022-09-18T04:48:33.286Z,56
2022-09-18T04:49:33.777Z,68
2022-09-18T04:50:33.505Z,80
2022-09-18T04:51:33.249Z,72
2022-09-18T04:52:33.483Z,88
2022-09-18T04:53:34.207Z,88
2022-09-18T04:54:33.459Z,84
2022-09-18T04:55:33.429Z,108
2022-09-18T04:56:33.690Z,144
2022-09-18T04:57:33.605Z,168
2022-09-18T04:58:33.134Z,196
2022-09-18T04:59:33.365Z,212
2022-09-18T05:00:33.673Z,276
2022-09-18T05:01:33.288Z,308
2022-09-18T05:02:33.357Z,328
2022-09-18T05:03:33.051Z,320
2022-09-18T05:04:32.792Z,328
2022-09-18T05:05:33.596Z,328
2022-09-18T05:06:33.267Z,344
2022-09-18T05:07:33.255Z,320
2022-09-18T05:08:32.987Z,360
2022-09-18T05:09:33.981Z,404
2022-09-18T05:10:32.953Z,456
2022-09-18T05:11:33.100Z,436
2022-09-18T05:12:32.936Z,436
2022-09-18T05:13:33.423Z,420
2022-09-18T05:14:33.145Z,408
2022-09-18T05:15:33.139Z,372
2022-09-18T05:16:33.490Z,364
2022-09-18T05:17:33.102Z,388
2022-09-18T05:18:32.575Z,452
2022-09-18T05:19:33.077Z,464
2022-09-18T05:20:33.333Z,492
2022-09-18T05:21:33.301Z,500
2022-09-18T05:22:33.032Z,532
2022-09-18T05:23:33.027Z,464
2022-09-18T05:24:33.009Z,540
2022-09-18T05:25:33.756Z,552
2022-09-18T05:26:32.722Z,492
2022-09-18T05:27:33.545Z,432
2022-09-18T05:28:32.698Z,404
2022-09-18T05:29:32.675Z,472
2022-09-18T05:30:32.910Z,656
2022-09-18T05:31:33.143Z,616
2022-09-18T05:32:32.883Z,568
2022-09-18T05:33:32.872Z,496
2022-09-18T05:34:32.873Z,628
2022-09-18T05:35:32.837Z,752
2022-09-18T05:36:32.832Z,864
2022-09-18T05:37:33.068Z,996
2022-09-18T05:38:32.542Z,1132
2022-09-18T05:39:32.530Z,964
2022-09-18T05:40:33.150Z,804
2022-09-18T05:41:33.525Z,712
2022-09-18T05:42:32.484Z,716
2022-09-18T05:43:32.470Z,988
2022-09-18T05:44:32.956Z,1000
2022-09-18T05:45:32.178Z,760
2022-09-18T05:46:32.790Z,844
2022-09-18T05:47:32.411Z,804
2022-09-18T05:48:32.647Z,768
2022-09-18T05:49:32.904Z,1180
2022-09-18T05:50:32.625Z,1236
2022-09-18T05:51:32.620Z,1244
2022-09-18T05:52:32.328Z,1268
2022-09-18T05:53:32.328Z,1352
2022-09-18T05:54:32.056Z,1080
2022-09-18T05:55:36.226Z,1156
2022-09-18T05:56:32.585Z,1556
2022-09-18T05:57:33.265Z,1472
2022-09-18T05:58:32.779Z,1564
2022-09-18T05:59:32.486Z,1364
2022-09-18T06:00:32.748Z,1660
2022-09-18T06:01:32.447Z,1592
2022-09-18T06:02:32.932Z,1468
2022-09-18T06:03:32.587Z,1572
2022-09-18T06:04:32.426Z,1432
2022-09-18T06:05:32.417Z,996
2022-09-18T06:06:32.170Z,1228
2022-09-18T06:07:32.414Z,1608
2022-09-18T06:08:32.404Z,1516
2022-09-18T06:09:31.846Z,1320
2022-09-18T06:10:32.440Z,1476
2022-09-18T06:11:32.086Z,1556
2022-09-18T06:12:32.305Z,1368
2022-09-18T06:13:33.055Z,1460
2022-09-18T06:14:32.282Z,1400
2022-09-18T06:15:32.514Z,1148
2022-09-18T06:16:32.348Z,1156
2022-09-18T06:17:31.984Z,1976
2022-09-18T06:18:31.978Z,2448
2022-09-18T06:19:31.696Z,1712
2022-09-18T06:20:32.560Z,1444
2022-09-18T06:21:32.194Z,1536
2022-09-18T06:22:32.183Z,1256
2022-09-18T06:23:32.141Z,1048
2022-09-18T06:24:32.404Z,1212
2022-09-18T06:25:31.852Z,1140
2022-09-18T06:26:31.850Z,1116
2022-09-18T06:27:32.083Z,1328
2022-09-18T06:28:31.819Z,1256
2022-09-18T06:29:32.797Z,1252
2022-09-18T06:30:32.342Z,1440
2022-09-18T06:31:32.332Z,1668
2022-09-18T06:32:31.762Z,1672
2022-09-18T06:33:31.998Z,1672
2022-09-18T06:34:34.488Z,1888
2022-09-18T06:35:32.228Z,2440
2022-09-18T06:36:31.707Z,2564
2022-09-18T06:37:31.964Z,2304
2022-09-18T06:38:31.927Z,3152
2022-09-18T06:39:31.916Z,4036
2022-09-18T06:40:32.424Z,4080
2022-09-18T06:41:31.892Z,3980
2022-09-18T06:42:31.871Z,3928
2022-09-18T06:43:32.119Z,4328
2022-09-18T06:44:31.855Z,3760
2022-09-18T06:45:32.477Z,4308
2022-09-18T06:46:32.320Z,5020
2022-09-18T06:47:31.803Z,5044
2022-09-18T06:48:32.037Z,4580
2022-09-18T06:49:31.773Z,3888
2022-09-18T06:50:31.596Z,4748
2022-09-18T06:51:31.751Z,4728
2022-09-18T06:52:31.472Z,5240
2022-09-18T06:53:31.714Z,4472
2022-09-18T06:54:31.703Z,4372
2022-09-18T06:55:31.178Z,4012
2022-09-18T06:56:31.674Z,3012
2022-09-18T06:57:31.658Z,3248
2022-09-18T06:58:31.139Z,4224
2022-09-18T06:59:31.168Z,4200
2022-09-18T07:00:31.715Z,3952
2022-09-18T07:01:32.751Z,3436
2022-09-18T07:02:31.301Z,3044
2022-09-18T07:03:31.080Z,3764
2022-09-18T07:04:31.567Z,5340
2022-09-18T07:05:31.801Z,7632
2022-09-18T07:06:31.538Z,5092
2022-09-18T07:07:31.529Z,4336
2022-09-18T07:08:31.263Z,2568
2022-09-18T07:09:31.489Z,2484
2022-09-18T07:10:31.596Z,2540
2022-09-18T07:11:31.723Z,2996
2022-09-18T07:12:31.724Z,5020
2022-09-18T07:13:31.180Z,5668
2022-09-18T07:14:31.428Z,7688
2022-09-18T07:15:31.426Z,8552
2022-09-18T07:16:31.515Z,8128
2022-09-18T07:17:34.203Z,5300
2022-09-18T07:18:31.625Z,5008
2022-09-18T07:19:31.103Z,5800
2022-09-18T07:20:31.183Z,5808
2022-09-18T07:21:31.078Z,5688
2022-09-18T07:22:31.066Z,5140
2022-09-18T07:23:30.789Z,4012
2022-09-18T07:24:31.286Z,4580
2022-09-18T07:25:31.552Z,4712
2022-09-18T07:26:30.760Z,4384
2022-09-18T07:27:31.251Z,5688
2022-09-18T07:28:31.484Z,3676
2022-09-18T07:29:31.220Z,3640
2022-09-18T07:30:31.064Z,5200
2022-09-18T07:31:31.666Z,7688
2022-09-18T07:32:30.921Z,6864
2022-09-18T07:33:31.911Z,4348
2022-09-18T07:34:31.628Z,4396
2022-09-18T07:35:30.908Z,7048
2022-09-18T07:36:31.127Z,4644
2022-09-18T07:37:31.114Z,4060
2022-09-18T07:38:30.863Z,6140
2022-09-18T07:39:30.839Z,7620
2022-09-18T07:40:31.461Z,6736
2022-09-18T07:41:30.562Z,6716
2022-09-18T07:42:30.536Z,6180
2022-09-18T07:43:31.330Z,7268
2022-09-18T07:44:31.309Z,4852
2022-09-18T07:45:31.033Z,4284
2022-09-18T07:46:31.354Z,4028
2022-09-18T07:47:30.985Z,4332
2022-09-18T07:48:31.223Z,4988
2022-09-18T07:49:31.711Z,5372
2022-09-18T07:50:30.949Z,6384
2022-09-18T07:51:33.380Z,7248
2022-09-18T07:52:30.658Z,5972
2022-09-18T07:53:31.158Z,3884
2022-09-18T07:54:30.645Z,3856
2022-09-18T07:55:30.620Z,4392
2022-09-18T07:56:30.612Z,6912
2022-09-18T07:57:30.616Z,5592
2022-09-18T07:58:30.589Z,4208
2022-09-18T07:59:30.328Z,3876
2022-09-18T08:00:30.557Z,5180
2022-09-18T08:01:30.637Z,4784
2022-09-18T08:02:31.308Z,5308
2022-09-18T08:03:30.801Z,6212
2022-09-18T08:04:31.024Z,3824
2022-09-18T08:05:31.489Z,3164
2022-09-18T08:06:30.496Z,3636
2022-09-18T08:07:30.504Z,4132
2022-09-18T08:08:30.462Z,4368
2022-09-18T08:09:30.957Z,4792
2022-09-18T08:10:30.696Z,6908
2022-09-18T08:11:30.947Z,6548
2022-09-18T08:12:30.431Z,5616
2022-09-18T08:13:30.911Z,5628
2022-09-18T08:14:35.438Z,6052
2022-09-18T08:15:30.378Z,5360
2022-09-18T08:16:31.024Z,4324
2022-09-18T08:17:30.601Z,4100
2022-09-18T08:18:30.595Z,4096
2022-09-18T08:19:30.587Z,5112
2022-09-18T08:20:30.333Z,6180
2022-09-18T08:21:31.293Z,6244
2022-09-18T08:22:30.820Z,7840
2022-09-18T08:23:30.543Z,10212
2022-09-18T08:24:30.281Z,9604
2022-09-18T08:25:30.266Z,7504
2022-09-18T08:26:30.498Z,8740
2022-09-18T08:27:30.234Z,10640
2022-09-18T08:28:29.972Z,10064
2022-09-18T08:29:30.460Z,6912
2022-09-18T08:30:30.457Z,6320
2022-09-18T08:31:30.519Z,5224
2022-09-18T08:32:30.433Z,5492
2022-09-18T08:33:30.667Z,6240
2022-09-18T08:34:29.951Z,6216
2022-09-18T08:35:30.654Z,6680
2022-09-18T08:36:30.124Z,5460
2022-09-18T08:37:31.143Z,5432
2022-09-18T08:38:30.382Z,5852
2022-09-18T08:39:30.105Z,8408
2022-09-18T08:40:30.605Z,9940
2022-09-18T08:41:30.323Z,9904
2022-09-18T08:42:33.103Z,9776
2022-09-18T08:43:30.563Z,7688
2022-09-18T08:44:30.045Z,5748
2022-09-18T08:45:30.053Z,6112
2022-09-18T08:46:30.759Z,7120
2022-09-18T08:47:30.273Z,8372
2022-09-18T08:48:30.000Z,7332
2022-09-18T08:49:30.237Z,5844
2022-09-18T08:50:32.908Z,3880
2022-09-18T08:51:30.478Z,3704
2022-09-18T08:52:30.211Z,5016
2022-09-18T08:53:31.010Z,6376
2022-09-18T08:54:29.922Z,5928
2022-09-18T08:55:30.433Z,6748
2022-09-18T08:56:29.908Z,8308
2022-09-18T08:57:30.403Z,7972
2022-09-18T08:58:29.878Z,5816
2022-09-18T08:59:30.376Z,4972
2022-09-18T09:00:30.161Z,6144
2022-09-18T09:01:30.428Z,7160
2022-09-18T09:02:32.505Z,7876
2022-09-18T09:03:29.559Z,8792
2022-09-18T09:04:30.077Z,9760
2022-09-18T09:05:29.545Z,10008
2022-09-18T09:06:30.031Z,10128
2022-09-18T09:07:30.028Z,10028
2022-09-18T09:08:30.272Z,10020
2022-09-18T09:09:30.750Z,9780
2022-09-18T09:10:29.996Z,9100
2022-09-18T09:11:29.474Z,9536
2022-09-18T09:12:29.971Z,9336
2022-09-18T09:13:29.977Z,7960
2022-09-18T09:15:02.293Z,4696
2022-09-18T09:15:30.200Z,4160
2022-09-18T09:16:30.529Z,4208
2022-09-18T09:17:29.920Z,5248
2022-09-18T09:18:29.905Z,6264
2022-09-18T09:19:29.917Z,7360
2022-09-18T09:20:29.890Z,8120
2022-09-18T09:21:29.869Z,9048
2022-09-18T09:22:29.607Z,8036
2022-09-18T09:23:30.116Z,7920
2022-09-18T09:24:29.597Z,9208
2022-09-18T09:25:30.569Z,12172
2022-09-18T09:26:29.819Z,12228
2022-09-18T09:27:29.810Z,9836
2022-09-18T09:28:29.544Z,8868
2022-09-18T09:29:29.536Z,8124
2022-09-18T09:30:29.762Z,9360
2022-09-18T09:31:30.009Z,11716
2022-09-18T09:32:29.498Z,12300
2022-09-18T09:33:29.988Z,11732
2022-09-18T09:34:29.718Z,11296
2022-09-18T09:35:29.971Z,10764
2022-09-18T09:36:29.195Z,10592
2022-09-18T09:37:34.028Z,11396
2022-09-18T09:38:29.174Z,10132
2022-09-18T09:39:29.420Z,9352
2022-09-18T09:40:29.657Z,8764
2022-09-18T09:41:30.405Z,8076
2022-09-18T09:42:29.396Z,8188
2022-09-18T09:43:29.376Z,7776
2022-09-18T09:44:29.369Z,7204
2022-09-18T09:45:29.362Z,4928
2022-09-18T09:46:29.875Z,4468
2022-09-18T09:47:29.591Z,5656
2022-09-18T09:48:29.066Z,6772
2022-09-18T09:49:29.320Z,7152
2022-09-18T09:50:30.011Z,7496
2022-09-18T09:51:29.565Z,7404
2022-09-18T09:52:29.536Z,6204
2022-09-18T09:53:29.272Z,5116
2022-09-18T09:54:29.265Z,5452
2022-09-18T09:55:29.260Z,6916
2022-09-18T09:56:29.497Z,6756
2022-09-18T09:57:30.230Z,5792
2022-09-18T09:58:29.476Z,5048
2022-09-18T09:59:29.455Z,4944
2022-09-18T10:00:29.623Z,4608
2022-09-18T10:01:29.289Z,4068
2022-09-18T10:02:29.882Z,3444
2022-09-18T10:03:29.667Z,3080
2022-09-18T10:04:29.354Z,2756
2022-09-18T10:05:29.453Z,2224
2022-09-18T10:06:29.398Z,2776
2022-09-18T10:07:29.382Z,4040
2022-09-18T10:08:28.873Z,6400
2022-09-18T10:09:29.089Z,8460
2022-09-18T10:10:29.093Z,9628
2022-09-18T10:11:29.319Z,9720
2022-09-18T10:12:29.055Z,8464
2022-09-18T10:13:30.060Z,5364
2022-09-18T10:14:29.294Z,3308
2022-09-18T10:15:29.269Z,2444
2022-09-18T10:16:29.467Z,1916
2022-09-18T10:17:29.259Z,1796
2022-09-18T10:18:29.495Z,2608
2022-09-18T10:19:29.233Z,3556
2022-09-18T10:20:28.966Z,4252
2022-09-18T10:21:28.972Z,6084
2022-09-18T10:22:28.949Z,8436
2022-09-18T10:23:37.599Z,8676
2022-09-18T10:24:28.918Z,7404
2022-09-18T10:25:28.913Z,5744
2022-09-18T10:26:29.407Z,3980
2022-09-18T10:27:28.878Z,3436
2022-09-18T10:28:29.377Z,3116
2022-09-18T10:29:32.747Z,2468
2022-09-18T10:30:28.853Z,2032
2022-09-18T10:31:29.434Z,2668
2022-09-18T10:32:28.819Z,3532
2022-09-18T10:33:29.064Z,3672
2022-09-18T10:34:28.801Z,4044
2022-09-18T10:35:29.041Z,4024
2022-09-18T10:36:29.296Z,3180
2022-09-18T10:37:29.024Z,2808
2022-09-18T10:38:29.267Z,2372
2022-09-18T10:39:34.362Z,1936
2022-09-18T10:40:29.328Z,2176
2022-09-18T10:41:28.991Z,2948
2022-09-18T10:42:28.439Z,3336
2022-09-18T10:43:29.206Z,3740
2022-09-18T10:44:28.944Z,3580
2022-09-18T10:45:29.669Z,3340
2022-09-18T10:46:28.933Z,3152
2022-09-18T10:47:28.898Z,2736
2022-09-18T10:48:28.636Z,3988
2022-09-18T10:49:28.892Z,4756
2022-09-18T10:50:31.317Z,3880
2022-09-18T10:51:28.850Z,3392
2022-09-18T10:52:28.580Z,4436
2022-09-18T10:53:28.325Z,6732
2022-09-18T10:54:29.080Z,8284
2022-09-18T10:55:28.584Z,7696
2022-09-18T10:56:28.282Z,6656
2022-09-18T10:57:28.528Z,7824
2022-09-18T10:58:28.532Z,10472
2022-09-18T10:59:29.110Z,10516
2022-09-18T11:00:28.619Z,9212
2022-09-18T11:01:29.772Z,9624
2022-09-18T11:02:29.456Z,9380
2022-09-18T11:03:28.458Z,8296
2022-09-18T11:04:28.956Z,8564
2022-09-18T11:05:28.697Z,9804
2022-09-18T11:06:28.341Z,10376
2022-09-18T11:07:32.743Z,11324
2022-09-18T11:08:28.402Z,11408
2022-09-18T11:09:28.643Z,11612
2022-09-18T11:10:28.365Z,11604
2022-09-18T11:11:28.357Z,11192
2022-09-18T11:12:28.364Z,10528
2022-09-18T11:13:28.381Z,10160
2022-09-18T11:14:28.581Z,9680
2022-09-18T11:15:28.314Z,9024
2022-09-18T11:16:28.630Z,8328
2022-09-18T11:17:29.327Z,8748
2022-09-18T11:18:28.538Z,8452
2022-09-18T11:19:28.779Z,8192
2022-09-18T11:20:28.517Z,7888
2022-09-18T11:21:28.530Z,7504
2022-09-18T11:22:28.498Z,8124
2022-09-18T11:23:28.734Z,8048
2022-09-18T11:24:27.985Z,8220
2022-09-18T11:25:28.473Z,6852
2022-09-18T11:26:28.731Z,6552
2022-09-18T11:27:28.449Z,7760
2022-09-18T11:28:28.467Z,8480
2022-09-18T11:29:28.176Z,8840
2022-09-18T11:30:28.165Z,9604
2022-09-18T11:31:28.984Z,10424
2022-09-18T11:32:27.867Z,10568
2022-09-18T11:33:29.142Z,10712
2022-09-18T11:34:28.362Z,10584
2022-09-18T11:35:28.342Z,10464
2022-09-18T11:36:28.347Z,10224
2022-09-18T11:37:28.335Z,9992
2022-09-18T11:38:28.335Z,9528
2022-09-18T11:39:31.472Z,9104
2022-09-18T11:40:28.789Z,8944
2022-09-18T11:41:28.562Z,8880
2022-09-18T11:42:28.037Z,9140
2022-09-18T11:43:28.531Z,9660
2022-09-18T11:44:28.265Z,10068
2022-09-18T11:45:27.784Z,10080
2022-09-18T11:46:28.011Z,9808
2022-09-18T11:47:28.281Z,9444
2022-09-18T11:48:28.475Z,9136
2022-09-18T11:49:28.950Z,9248
2022-09-18T11:50:28.194Z,9516
2022-09-18T11:51:27.937Z,9284
2022-09-18T11:52:28.021Z,8736
2022-09-18T11:53:28.217Z,7988
2022-09-18T11:54:28.409Z,7512
2022-09-18T11:55:28.159Z,7236
2022-09-18T11:56:27.889Z,6760
2022-09-18T11:57:27.881Z,6080
2022-09-18T11:58:27.862Z,6124
2022-09-18T11:59:28.105Z,6248
2022-09-18T12:00:28.359Z,5236
2022-09-18T12:01:27.834Z,4536
2022-09-18T12:02:28.312Z,5076
2022-09-18T12:03:28.262Z,5452
2022-09-18T12:04:28.048Z,5672
2022-09-18T12:05:28.792Z,6980
2022-09-18T12:06:27.779Z,6432
2022-09-18T12:07:45.361Z,4068
2022-09-18T12:08:26.909Z,3332
2022-09-18T12:09:26.644Z,2644
2022-09-18T12:10:26.384Z,2676
2022-09-18T12:11:26.358Z,4196
2022-09-18T12:12:26.599Z,4240
2022-09-18T12:13:26.336Z,3976
2022-09-18T12:14:26.582Z,4292
2022-09-18T12:15:26.066Z,4320
2022-09-18T12:16:26.607Z,4504
2022-09-18T12:17:26.553Z,5252
2022-09-18T12:18:26.043Z,6260
2022-09-18T12:19:26.529Z,7204
2022-09-18T12:20:26.506Z,7768
2022-09-18T12:21:27.260Z,8360
2022-09-18T12:22:26.489Z,8912
2022-09-18T12:23:26.229Z,9152
2022-09-18T12:24:26.203Z,9240
2022-09-18T12:25:26.197Z,9292
2022-09-18T12:26:26.190Z,9364
2022-09-18T12:27:30.773Z,9268
2022-09-18T12:28:26.678Z,9000
2022-09-18T12:29:26.402Z,8812
2022-09-18T12:30:26.389Z,9260
2022-09-18T12:31:26.705Z,9860
2022-09-18T12:32:26.622Z,10004
2022-09-18T12:33:26.368Z,9360
2022-09-18T12:34:26.085Z,8700
2022-09-18T12:35:26.349Z,8196
2022-09-18T12:36:26.073Z,8216
2022-09-18T12:37:27.056Z,8024
2022-09-18T12:38:26.303Z,8024
2022-09-18T12:39:26.963Z,9200
2022-09-18T12:40:27.365Z,9900
2022-09-18T12:41:26.686Z,9772
2022-09-18T12:42:26.672Z,9924
2022-09-18T12:43:26.920Z,9072
2022-09-18T12:44:26.405Z,7832
2022-09-18T12:45:26.805Z,7228
2022-09-18T12:46:26.883Z,7272
2022-09-18T12:47:26.629Z,5068
2022-09-18T12:48:26.363Z,4532
2022-09-18T12:49:27.104Z,4996
2022-09-18T12:50:27.105Z,3552
2022-09-18T12:51:26.590Z,3412
2022-09-18T12:52:30.509Z,3392
2022-09-18T12:53:27.166Z,3520
2022-09-18T12:54:26.799Z,4500
2022-09-18T12:55:26.533Z,5072
2022-09-18T12:56:26.770Z,5340
2022-09-18T12:57:26.758Z,4328
2022-09-18T12:58:26.237Z,2768
2022-09-18T12:59:26.741Z,2492
2022-09-18T13:00:26.493Z,2628
2022-09-18T13:01:26.599Z,2228
2022-09-18T13:02:26.444Z,2596
2022-09-18T13:03:26.944Z,2540
2022-09-18T13:04:26.671Z,3052
2022-09-18T13:05:26.157Z,2940
2022-09-18T13:06:26.652Z,3372
2022-09-18T13:07:26.398Z,4340
2022-09-18T13:08:26.504Z,4804
2022-09-18T13:09:32.298Z,5404
2022-09-18T13:10:26.105Z,6004
2022-09-18T13:11:26.863Z,6052
2022-09-18T13:12:26.345Z,6068
2022-09-18T13:13:26.060Z,5976
2022-09-18T13:14:26.307Z,5508
2022-09-18T13:15:26.555Z,4836
2022-09-18T13:16:27.894Z,4412
2022-09-18T13:17:27.249Z,3972
2022-09-18T13:18:27.497Z,3684
2022-09-18T13:19:26.722Z,3208
2022-09-18T13:20:26.988Z,2632
2022-09-18T13:21:26.957Z,2580
2022-09-18T13:22:26.942Z,2104
2022-09-18T13:23:26.930Z,2132
2022-09-18T13:24:27.298Z,2428
2022-09-18T13:25:27.692Z,2740
2022-09-18T13:26:26.637Z,3328
2022-09-18T13:27:27.127Z,3584
2022-09-18T13:28:26.871Z,3552
2022-09-18T13:29:27.112Z,4176
2022-09-18T13:30:26.632Z,4360
2022-09-18T13:31:27.116Z,4276
2022-09-18T13:32:27.340Z,3936
2022-09-18T13:33:27.058Z,3220
2022-09-18T13:34:27.051Z,2988
2022-09-18T13:35:26.796Z,2936
2022-09-18T13:36:26.775Z,2860
2022-09-18T13:37:27.002Z,2464
2022-09-18T13:38:26.768Z,2172
2022-09-18T13:39:27.028Z,2444
2022-09-18T13:40:27.632Z,2056
2022-09-18T13:41:27.366Z,2560
2022-09-18T13:42:26.999Z,2852
2022-09-18T13:43:26.679Z,2916
2022-09-18T13:44:26.999Z,3316
2022-09-18T13:45:26.656Z,3488
2022-09-18T13:46:27.389Z,3252
2022-09-18T13:47:26.886Z,3012
2022-09-18T13:48:26.877Z,2968
2022-09-18T13:49:26.632Z,3400
2022-09-18T13:50:27.200Z,3612
2022-09-18T13:51:31.642Z,3404
2022-09-18T13:52:26.817Z,3028
2022-09-18T13:53:26.809Z,2888
2022-09-18T13:54:26.529Z,2904
2022-09-18T13:55:26.525Z,3032
2022-09-18T13:56:26.904Z,3332
2022-09-18T13:57:27.376Z,3460
2022-09-18T13:58:26.743Z,3300
2022-09-18T13:59:26.741Z,3196
2022-09-18T14:00:26.989Z,2616
2022-09-18T14:01:26.531Z,2760
2022-09-18T14:02:26.656Z,2580